Cabo, Brazil
Current Conditions -  °F | °C
As of 1:00 PM on Saturday 20 Dec 2014 (Local Time) from SBRF Reporting Station
Few Clouds Few Clouds  
Wind Chill: 86°   Ceiling: Unl
Heat Index: 93°   Visibility: 6mi
Dew Point: 73°   Wind: 12mph
Humidity: 66%   Direction: 90°E
Pressure: 29.91"   Gusts: NA
Location:  8.26°S, 35.01°W
Report Text: SBRF 201600Z 09010KT 9999 FEW025 30/23 Q1013
Loading
Personal Weather Stations






























Interactive Weather Map New forecast layout! Learn more

10-Day Weather Forecast

Advertisements
Track Severe Weather on mobile